Time;durP1;ratioP1;P1;durP2;ratioP2;P2;SDS_P1;SDS_P2;PMS_P1;PMS_P2;Temp;Humidity;BMP_temperature;BMP_pressure;BME280_temperature;BME280_humidity;BME280_pressure;Samples;Min_cycle;Max_cycle;Signal;HPM_P1;HPM_P2
2023/04/30 00:01:37;;;;;;;1.90;1.23;;;;;;;17.57;56.34;96774.38;10351944;28;20054;-30
2023/04/30 00:06:40;;;;;;;1.53;1.43;;;;;;;17.54;56.20;96775.22;10359478;28;20128;-30
2023/04/30 00:11:40;;;;;;;1.73;1.08;;;;;;;17.53;55.89;96772.66;10331138;28;20471;-30
2023/04/30 00:16:40;;;;;;;1.77;0.87;;;;;;;17.53;56.09;96780.25;10336444;28;20042;-30
2023/04/30 00:21:41;;;;;;;2.80;1.00;;;;;;;17.53;56.28;96776.06;10337051;28;20035;-30
2023/04/30 00:26:42;;;;;;;2.70;1.75;;;;;;;17.65;60.73;96773.56;10334094;28;20039;-30
2023/04/30 00:31:43;;;;;;;3.42;1.98;;;;;;;17.75;64.80;96777.00;10335192;28;20045;-30
2023/04/30 00:36:43;;;;;;;2.05;1.52;;;;;;;17.74;60.78;96766.00;10346525;28;20041;-30
2023/04/30 00:41:44;;;;;;;1.80;1.10;;;;;;;17.64;60.41;96765.94;10329478;28;20064;-30
2023/04/30 00:46:45;;;;;;;3.92;1.10;;;;;;;17.59;56.83;96762.56;10319757;28;20300;-30
2023/04/30 00:51:46;;;;;;;1.80;1.25;;;;;;;17.55;56.35;96760.84;10331780;28;20061;-31
2023/04/30 00:56:48;;;;;;;1.77;1.10;;;;;;;17.53;56.38;96753.28;10324260;28;20400;-31
2023/04/30 01:01:48;;;;;;;1.25;0.85;;;;;;;17.52;56.22;96740.59;10343399;28;20029;-30
2023/04/30 01:06:49;;;;;;;1.90;1.33;;;;;;;17.52;56.52;96730.47;10354417;28;20129;-30
2023/04/30 01:12:23;;;;;;;1.60;1.00;;;;;;;17.53;56.54;96722.91;10343498;28;20481;-31
2023/04/30 01:17:36;;;;;;;2.00;1.20;;;;;;;17.63;59.18;96726.28;10334922;28;20063;-30
2023/04/30 01:23:26;;;;;;;1.73;1.52;;;;;;;17.72;64.89;96716.19;10358510;28;20080;-30
2023/04/30 01:28:27;;;;;;;1.20;1.10;;;;;;;17.74;61.35;96709.47;10349952;28;20073;-30
2023/04/30 01:33:29;;;;;;;1.83;1.35;;;;;;;17.65;59.77;96719.56;10328866;28;20030;-30
2023/04/30 01:38:38;;;;;;;2.53;1.10;;;;;;;17.59;56.66;96722.06;10327315;28;20085;-30
2023/04/30 01:43:49;;;;;;;1.50;1.02;;;;;;;17.54;56.56;96722.06;10338173;28;20376;-30
2023/04/30 01:49:14;;;;;;;2.00;0.98;;;;;;;17.54;56.43;96718.66;10315706;28;20026;-30
2023/04/30 01:54:50;;;;;;;2.30;0.90;;;;;;;17.53;56.48;96717.84;10345983;28;20093;-31
2023/04/30 01:59:51;;;;;;;1.80;1.30;;;;;;;17.54;56.08;96726.25;10323627;28;20485;-31
2023/04/30 02:04:51;;;;;;;1.58;1.00;;;;;;;17.52;56.30;96721.22;10317070;28;20030;-30
2023/04/30 02:09:52;;;;;;;2.43;1.57;;;;;;;17.58;60.06;96721.22;10351899;28;20022;-30
2023/04/30 02:14:52;;;;;;;2.43;2.13;;;;;;;17.72;64.58;96713.66;10319966;28;20033;-31
2023/04/30 02:19:52;;;;;;;1.60;1.30;;;;;;;17.74;61.99;96712.81;10335656;28;20026;-30
2023/04/30 02:24:54;;;;;;;1.57;1.03;;;;;;;17.68;60.08;96719.56;10329672;28;20104;-30
2023/04/30 02:29:55;;;;;;;2.08;1.15;;;;;;;17.59;57.26;96717.00;10357987;28;20034;-30
2023/04/30 02:34:55;;;;;;;1.35;0.90;;;;;;;17.56;56.70;96722.06;10355439;28;20030;-30
2023/04/30 02:39:56;;;;;;;1.75;0.80;;;;;;;17.51;56.75;96719.50;10348616;28;20066;-31
2023/04/30 02:44:56;;;;;;;1.67;1.17;;;;;;;17.53;56.28;96727.09;10337144;28;20037;-31
2023/04/30 02:49:57;;;;;;;1.38;0.90;;;;;;;17.52;56.40;96723.75;10339234;28;20026;-30
2023/04/30 02:54:57;;;;;;;1.43;0.90;;;;;;;17.52;56.35;96720.34;10339672;28;20038;-31
2023/04/30 02:59:57;;;;;;;1.53;1.10;;;;;;;17.47;56.09;96706.81;10354836;28;20036;-30
2023/04/30 03:04:58;;;;;;;5.60;2.20;;;;;;;17.65;63.60;96711.97;10334474;28;20294;-30
2023/04/30 03:09:58;;;;;;;3.93;2.43;;;;;;;17.71;64.54;96706.91;10346901;28;20060;-30
2023/04/30 03:14:59;;;;;;;4.57;1.10;;;;;;;17.74;60.89;96706.94;10340690;28;20034;-30
2023/04/30 03:19:59;;;;;;;1.20;1.00;;;;;;;17.62;59.01;96700.16;10331270;28;20563;-30
2023/04/30 03:25:00;;;;;;;1.40;0.98;;;;;;;17.57;56.64;96701.81;10318967;28;20027;-30
2023/04/30 03:30:00;;;;;;;1.50;1.40;;;;;;;17.56;56.64;96699.28;10336993;28;20033;-30
2023/04/30 03:35:01;;;;;;;1.10;1.00;;;;;;;17.54;56.54;96693.34;10335883;28;20791;-30
2023/04/30 03:40:02;;;;;;;1.00;0.87;;;;;;;17.52;56.24;96685.78;10328344;28;20048;-30
2023/04/30 03:45:03;;;;;;;1.33;0.90;;;;;;;17.52;56.46;96682.38;10330676;28;20633;-30
2023/04/30 03:50:03;;;;;;;1.17;1.08;;;;;;;17.50;55.91;96684.06;10322980;28;20026;-30
2023/04/30 03:55:05;;;;;;;0.75;0.75;;;;;;;17.50;56.31;96682.38;10336745;28;20053;-30
2023/04/30 04:00:09;;;;;;;2.20;1.42;;;;;;;17.64;64.06;96682.41;10331929;28;20054;-31
2023/04/30 04:05:13;;;;;;;1.40;1.17;;;;;;;17.72;64.46;96678.22;10345671;28;20041;-30
2023/04/30 04:10:13;;;;;;;1.20;1.10;;;;;;;17.70;61.44;96685.81;10335247;28;20026;-30
2023/04/30 04:15:14;;;;;;;1.77;0.95;;;;;;;17.62;59.31;96681.56;10322379;28;20404;-30
2023/04/30 04:20:14;;;;;;;0.85;0.75;;;;;;;17.57;56.89;96693.38;10347370;28;20499;-30
2023/04/30 04:25:16;;;;;;;1.42;0.90;;;;;;;17.54;56.66;96699.28;10321484;28;20040;-30
2023/04/30 04:30:17;;;;;;;2.03;0.98;;;;;;;17.54;56.33;96693.34;10331728;28;20036;-30
2023/04/30 04:35:19;;;;;;;0.85;0.82;;;;;;;17.51;56.05;96699.25;10343164;28;20161;-30
2023/04/30 04:40:20;;;;;;;1.58;0.80;;;;;;;17.52;56.38;96705.16;10324063;28;20057;-30
2023/04/30 04:45:21;;;;;;;2.63;1.20;;;;;;;17.50;56.14;96705.16;10318315;28;20045;-30
2023/04/30 04:50:22;;;;;;;1.52;0.85;;;;;;;17.51;56.20;96713.59;10333646;28;20028;-30
2023/04/30 04:55:23;;;;;;;1.95;1.77;;;;;;;17.67;63.87;96715.34;10350997;28;20048;-30
2023/04/30 05:00:24;;;;;;;3.10;1.50;;;;;;;17.72;64.45;96709.44;10327114;28;20041;-30
2023/04/30 05:05:25;;;;;;;2.13;1.20;;;;;;;17.70;60.61;96715.34;10335195;28;20050;-30
2023/04/30 05:10:25;;;;;;;1.37;0.90;;;;;;;17.62;56.85;96717.00;10338912;28;20109;-30
2023/04/30 05:15:25;;;;;;;1.10;1.00;;;;;;;17.58;56.48;96723.75;10312709;28;20448;-30
2023/04/30 05:20:26;;;;;;;1.42;1.10;;;;;;;17.56;56.10;96715.31;10340922;28;20035;-30
2023/04/30 05:25:29;;;;;;;1.80;1.17;;;;;;;17.58;56.25;96725.44;10344858;28;20088;-31
2023/04/30 05:30:29;;;;;;;1.20;0.88;;;;;;;17.59;55.68;96724.59;10315814;28;20309;-31
2023/04/30 05:35:30;;;;;;;1.38;0.85;;;;;;;17.59;55.95;96719.53;10338500;28;20046;-30
2023/04/30 05:40:31;;;;;;;1.52;0.77;;;;;;;17.53;57.78;96706.84;10311005;28;20034;-30
2023/04/30 05:45:32;;;;;;;2.80;1.35;;;;;;;17.52;56.19;96710.22;10326486;28;20126;-26
2023/04/30 05:50:32;;;;;;;3.33;1.55;;;;;;;17.64;62.61;96697.59;10336986;28;20436;-30
2023/04/30 05:55:33;;;;;;;4.05;1.40;;;;;;;17.72;63.35;96694.25;10347159;28;20124;-30
2023/04/30 06:00:34;;;;;;;2.08;1.30;;;;;;;17.72;60.49;96694.25;10325589;28;20042;-31
2023/04/30 06:05:35;;;;;;;0.95;0.70;;;;;;;17.63;56.66;96689.16;10338760;28;20042;-30
2023/04/30 06:10:35;;;;;;;1.50;1.27;;;;;;;17.57;56.01;96698.44;10347221;28;20087;-30
2023/04/30 06:15:36;;;;;;;1.75;1.10;;;;;;;17.57;56.42;96693.38;10338983;28;20058;-30
2023/04/30 06:20:36;;;;;;;2.92;1.23;;;;;;;17.56;56.06;96701.81;10345293;28;20040;-30
2023/04/30 06:25:38;;;;;;;1.17;0.90;;;;;;;17.56;56.14;96701.81;10310291;28;20034;-30
2023/04/30 06:30:40;;;;;;;0.80;0.77;;;;;;;17.57;56.16;96708.56;10323394;28;20089;-30
2023/04/30 06:35:40;;;;;;;0.88;0.70;;;;;;;17.57;56.15;96701.81;10337854;28;20042;-31
2023/04/30 06:40:40;;;;;;;1.40;0.77;;;;;;;17.62;55.74;96702.69;10323220;28;20416;-30
2023/04/30 06:45:41;;;;;;;1.83;1.23;;;;;;;17.68;59.15;96712.78;10336024;28;20298;-30
2023/04/30 06:50:44;;;;;;;4.32;1.80;;;;;;;17.78;61.93;96703.56;10328530;28;20050;-30
2023/04/30 06:55:48;;;;;;;2.97;1.33;;;;;;;17.78;57.12;96701.03;10342903;28;20350;-30
2023/04/30 07:00:48;;;;;;;0.95;0.70;;;;;;;17.72;55.40;96711.97;10319782;28;20568;-31
2023/04/30 07:05:50;;;;;;;1.23;0.80;;;;;;;17.71;54.98;96701.84;10344569;28;20050;-30
2023/04/30 07:10:50;;;;;;;1.40;0.70;;;;;;;17.70;55.17;96705.22;10342620;28;20464;-30
2023/04/30 07:15:51;;;;;;;1.05;0.68;;;;;;;17.69;54.87;96699.31;10328446;28;20141;-31
2023/04/30 07:20:51;;;;;;;0.98;0.88;;;;;;;17.69;54.96;96703.53;10328509;28;20034;-30
2023/04/30 07:25:52;;;;;;;2.43;0.97;;;;;;;17.64;55.99;96700.13;10350562;28;20042;-31
2023/04/30 07:30:52;;;;;;;1.80;1.10;;;;;;;17.60;55.27;96693.38;10337117;28;20242;-30
2023/04/30 07:35:54;;;;;;;4.00;1.50;;;;;;;17.56;56.21;96706.88;10339053;28;20044;-30
2023/04/30 07:40:55;;;;;;;4.18;0.95;;;;;;;17.61;55.61;96702.66;10349381;28;20394;-31
2023/04/30 07:45:55;;;;;;;4.10;1.52;;;;;;;17.74;57.21;96699.34;10345466;28;20043;-30
2023/04/30 07:50:56;;;;;;;2.70;1.60;;;;;;;17.77;56.34;96696.81;10332693;28;20045;-30
2023/04/30 07:55:56;;;;;;;2.88;0.98;;;;;;;17.73;55.06;96700.19;10334221;28;20416;-30
2023/04/30 08:00:57;;;;;;;3.83;1.30;;;;;;;17.69;55.04;96703.53;10322303;28;20049;-30
2023/04/30 08:05:57;;;;;;;1.23;0.97;;;;;;;17.66;54.98;96701.00;10328363;28;20486;-29
2023/04/30 08:10:57;;;;;;;6.20;2.17;;;;;;;17.71;55.55;96702.69;10350246;28;20092;-30
2023/04/30 08:15:58;;;;;;;6.53;1.88;;;;;;;17.52;54.28;96705.16;10325779;28;20301;-30
2023/04/30 08:21:00;;;;;;;2.40;0.98;;;;;;;17.60;54.42;96708.56;10351752;28;20109;-29
2023/04/30 08:26:00;;;;;;;2.33;1.27;;;;;;;17.61;54.74;96700.13;10314692;28;20049;-30
2023/04/30 08:31:01;;;;;;;4.23;1.20;;;;;;;17.60;54.80;96708.56;10320132;28;20045;-30
2023/04/30 08:36:01;;;;;;;1.77;1.00;;;;;;;17.59;54.71;96709.41;10344443;28;20291;-30
2023/04/30 08:41:11;;;;;;;4.40;1.87;;;;;;;17.69;59.18;96713.66;10349488;28;20042;-29
2023/04/30 08:46:12;;;;;;;2.03;1.52;;;;;;;17.74;59.36;96707.75;10329486;28;20463;-31
2023/04/30 08:51:13;;;;;;;3.10;1.52;;;;;;;17.73;57.84;96713.66;10344550;28;20039;-30
2023/04/30 08:56:14;;;;;;;0.98;0.85;;;;;;;17.65;55.25;96717.03;10327454;28;20405;-30
2023/04/30 09:01:15;;;;;;;2.13;0.80;;;;;;;17.61;55.26;96708.59;10338963;28;20093;-30
2023/04/30 09:06:16;;;;;;;1.17;1.00;;;;;;;17.57;54.93;96704.34;10336837;28;20065;-28
2023/04/30 09:11:27;;;;;;;2.10;0.90;;;;;;;17.59;54.93;96699.28;10325120;28;20026;-30
2023/04/30 09:16:43;;;;;;;2.20;1.10;;;;;;;17.57;54.98;96700.97;10320437;28;20150;-29
2023/04/30 09:21:43;;;;;;;1.20;0.90;;;;;;;17.56;54.45;96696.75;10324386;28;20485;-30
2023/04/30 09:26:46;;;;;;;0.80;0.80;;;;;;;17.55;54.75;96684.91;10332603;28;20043;-30
2023/04/30 09:31:46;;;;;;;1.27;0.82;;;;;;;17.52;54.55;96680.72;10316965;28;20078;-30
2023/04/30 09:36:56;;;;;;;1.52;1.42;;;;;;;17.57;57.49;96679.03;10339820;28;20114;-35
2023/04/30 09:42:09;;;;;;;2.15;1.20;;;;;;;17.71;59.86;96676.53;10355228;28;20034;-29
2023/04/30 09:47:13;;;;;;;2.88;1.63;;;;;;;17.73;58.14;96674.88;10337328;28;20030;-30
2023/04/30 09:52:15;;;;;;;0.80;0.70;;;;;;;17.65;55.33;96674.00;10343159;28;20026;-29
2023/04/30 09:57:15;;;;;;;0.95;0.85;;;;;;;17.58;55.05;96665.53;10351433;28;20042;-30
2023/04/30 10:02:17;;;;;;;1.33;0.75;;;;;;;17.58;54.94;96669.75;10330474;28;20400;-30
2023/04/30 10:07:23;;;;;;;0.75;0.70;;;;;;;17.56;55.29;96668.91;10343471;28;20104;-29
2023/04/30 10:12:32;;;;;;;0.93;0.70;;;;;;;17.53;54.68;96657.09;10344838;28;20034;-30
2023/04/30 10:17:39;;;;;;;1.92;0.98;;;;;;;17.53;54.82;96651.16;10344902;28;20050;-29
2023/04/30 10:22:40;;;;;;;1.00;0.90;;;;;;;17.53;55.13;96652.03;10332796;28;20039;-31
2023/04/30 10:27:41;;;;;;;0.93;0.68;;;;;;;17.54;55.16;96655.38;10323298;28;20035;-31
2023/04/30 10:32:58;;;;;;;1.00;0.80;;;;;;;17.53;54.77;96652.03;10316249;28;20038;-30
2023/04/30 10:38:14;;;;;;;1.50;1.10;;;;;;;17.68;58.99;96651.22;10353880;28;20034;-29
2023/04/30 10:43:17;;;;;;;1.23;1.00;;;;;;;17.74;58.93;96641.09;10342335;28;20030;-30
2023/04/30 10:48:25;;;;;;;1.30;1.20;;;;;;;17.70;58.01;96646.97;10341334;28;20058;-30
2023/04/30 10:53:30;;;;;;;0.70;0.70;;;;;;;17.63;55.62;96655.41;10342215;28;20410;-29
2023/04/30 10:58:35;;;;;;;0.63;0.63;;;;;;;17.58;55.16;96650.34;10363799;28;20038;-30
2023/04/30 11:03:36;;;;;;;1.20;0.63;;;;;;;17.56;54.90;96646.13;10351638;28;20116;-29
2023/04/30 11:08:39;;;;;;;0.70;0.70;;;;;;;17.53;54.83;96635.97;10346245;28;20508;-30
2023/04/30 11:13:46;;;;;;;1.52;1.00;;;;;;;17.53;55.24;96630.91;10349573;28;20038;-30
2023/04/30 11:18:50;;;;;;;1.00;0.70;;;;;;;17.52;54.92;96626.69;10343866;28;20046;-30
2023/04/30 11:23:50;;;;;;;0.90;0.80;;;;;;;17.51;54.44;96627.53;10346976;28;20096;-31
2023/04/30 11:28:53;;;;;;;0.60;0.60;;;;;;;17.51;54.61;96619.94;10336055;28;20547;-29
2023/04/30 11:33:54;;;;;;;1.80;1.20;;;;;;;17.51;57.62;96609.81;10335573;28;20404;-30
2023/04/30 11:38:55;;;;;;;1.85;1.10;;;;;;;17.67;58.90;96616.59;10329515;28;20046;-30
2023/04/30 11:43:56;;;;;;;1.45;1.35;;;;;;;17.70;58.55;96621.66;10341798;28;20049;-29
2023/04/30 11:48:58;;;;;;;1.00;0.90;;;;;;;17.67;57.31;96614.06;10328710;28;20519;-30
2023/04/30 11:53:59;;;;;;;1.27;0.93;;;;;;;17.59;55.40;96608.16;10331696;28;20085;-30
2023/04/30 11:58:59;;;;;;;1.33;0.82;;;;;;;17.57;55.14;96608.16;10344671;28;20038;-30
2023/04/30 12:04:02;;;;;;;1.08;0.98;;;;;;;17.55;55.15;96606.44;10337080;28;20580;-30
2023/04/30 12:09:06;;;;;;;1.15;0.80;;;;;;;17.54;55.12;96607.28;10347679;28;20054;-30
2023/04/30 12:14:10;;;;;;;1.27;0.93;;;;;;;17.53;55.28;96606.47;10349052;28;20133;-29
2023/04/30 12:19:11;;;;;;;0.80;0.80;;;;;;;17.53;55.14;96603.06;10329752;28;20558;-30
2023/04/30 12:24:13;;;;;;;1.05;0.80;;;;;;;17.52;55.23;96598.84;10334099;28;20101;-30
2023/04/30 12:29:17;;;;;;;0.60;0.60;;;;;;;17.50;54.66;96595.50;10354368;28;20129;-30
2023/04/30 12:34:18;;;;;;;1.20;1.10;;;;;;;17.56;56.92;96590.44;10338802;28;20490;-29
2023/04/30 12:39:18;;;;;;;1.60;1.50;;;;;;;17.67;58.03;96593.81;10360466;28;20046;-30
2023/04/30 12:44:24;;;;;;;1.70;1.60;;;;;;;17.72;57.20;96592.97;10343117;28;20034;-30
2023/04/30 12:49:45;;;;;;;1.30;1.20;;;;;;;17.65;56.96;96585.38;10323089;28;20026;-30
2023/04/30 12:54:45;;;;;;;0.80;0.80;;;;;;;17.57;55.20;96582.00;10325898;28;20042;-30
2023/04/30 12:59:52;;;;;;;0.80;0.80;;;;;;;17.55;55.27;96578.59;10357911;28;20093;-29
2023/04/30 13:04:53;;;;;;;0.73;0.73;;;;;;;17.53;55.05;96585.34;10342737;28;20296;-30
2023/04/30 13:09:53;;;;;;;1.17;0.75;;;;;;;17.52;55.07;96586.19;10328987;28;20031;-30
2023/04/30 13:14:54;;;;;;;0.60;0.60;;;;;;;17.53;55.02;96585.34;10340106;28;20061;-30
2023/04/30 13:19:54;;;;;;;0.82;0.82;;;;;;;17.51;54.83;96584.53;10317486;28;20038;-30
2023/04/30 13:24:54;;;;;;;0.73;0.63;;;;;;;17.50;54.87;96585.38;10332260;28;20041;-29
2023/04/30 13:29:55;;;;;;;1.00;0.90;;;;;;;17.50;55.69;96580.31;10313258;28;20053;-30
2023/04/30 13:34:57;;;;;;;5.00;1.20;;;;;;;17.55;57.04;96573.53;10315657;28;20038;-29
2023/04/30 13:39:58;;;;;;;3.80;1.45;;;;;;;17.73;56.92;96574.41;10321354;28;20034;-29
2023/04/30 13:44:58;;;;;;;6.80;2.40;;;;;;;17.76;56.94;96565.97;10318306;28;20509;-30
2023/04/30 13:49:59;;;;;;;4.17;1.37;;;;;;;17.71;56.17;96570.19;10320850;28;20166;-30
2023/04/30 13:55:00;;;;;;;2.95;1.00;;;;;;;17.60;55.50;96566.81;10325419;28;20054;-30
2023/04/30 14:00:01;;;;;;;3.65;1.20;;;;;;;17.57;55.33;96570.16;10333264;28;20351;-30
2023/04/30 14:05:03;;;;;;;13.40;1.35;;;;;;;17.55;55.46;96564.28;10325572;28;20121;-29
2023/04/30 14:10:04;;;;;;;3.75;0.93;;;;;;;17.55;55.43;96561.75;10346285;28;20110;-29
2023/04/30 14:15:05;;;;;;;6.10;1.75;;;;;;;17.54;55.60;96557.53;10326440;28;20121;-30
2023/04/30 14:20:06;;;;;;;6.85;2.45;;;;;;;17.54;55.40;96561.72;10328789;28;20407;-30
2023/04/30 14:25:08;;;;;;;10.73;3.65;;;;;;;17.52;55.73;96553.31;10337076;28;20037;-30
2023/04/30 14:30:09;;;;;;;5.35;1.90;;;;;;;17.52;55.59;96548.25;10335338;28;20034;-29
2023/04/30 14:35:10;;;;;;;8.32;2.78;;;;;;;17.50;56.72;96544.88;10335348;28;20084;-29
2023/04/30 14:40:10;;;;;;;8.50;2.92;;;;;;;17.68;58.40;96539.81;10341816;28;20573;-30
2023/04/30 14:45:11;;;;;;;5.18;2.58;;;;;;;17.77;58.95;96538.13;10333767;28;20979;-29
2023/04/30 14:50:11;;;;;;;5.53;2.20;;;;;;;17.73;57.81;96533.06;10342914;28;20034;-29
2023/04/30 14:55:12;;;;;;;7.20;1.97;;;;;;;17.65;56.21;96535.59;10324727;28;20065;-30
2023/04/30 15:00:13;;;;;;;4.20;1.70;;;;;;;17.65;56.46;96532.22;10331503;28;20038;-30
2023/04/30 15:05:13;;;;;;;2.80;1.45;;;;;;;17.66;56.00;96541.50;10315355;28;20062;-30
2023/04/30 15:10:13;;;;;;;3.70;1.73;;;;;;;17.66;56.13;96524.63;10344744;28;20050;-32
2023/04/30 15:15:14;;;;;;;3.77;1.50;;;;;;;17.66;55.52;96533.91;10340836;28;20049;-30
2023/04/30 15:20:14;;;;;;;5.57;1.70;;;;;;;17.62;55.90;96525.47;10338925;28;20031;-30
2023/04/30 15:25:14;;;;;;;4.37;2.13;;;;;;;17.68;55.94;96533.03;10308866;28;20073;-32
2023/04/30 15:30:15;;;;;;;2.88;1.65;;;;;;;17.71;55.70;96527.13;10326179;28;20030;-30
2023/04/30 15:35:16;;;;;;;8.45;1.42;;;;;;;17.70;56.44;96522.94;10322610;28;20119;-31
2023/04/30 15:40:16;;;;;;;5.03;2.20;;;;;;;17.80;57.31;96529.66;10329160;28;20038;-31
2023/04/30 15:45:19;;;;;;;6.53;2.00;;;;;;;17.86;56.89;96532.22;10327563;28;20043;-30
2023/04/30 15:50:20;;;;;;;6.35;3.53;;;;;;;17.79;55.64;96527.97;10330112;28;20273;-30
2023/04/30 15:55:21;;;;;;;2.45;1.70;;;;;;;17.74;55.53;96527.16;10342154;28;20409;-30
2023/04/30 16:00:22;;;;;;;4.45;1.25;;;;;;;17.72;55.25;96531.34;10333698;28;20046;-30
2023/04/30 16:05:23;;;;;;;3.95;1.88;;;;;;;17.67;55.73;96528.81;10328598;28;20489;-29
2023/04/30 16:10:23;;;;;;;4.00;2.10;;;;;;;17.69;56.39;96536.44;10340859;28;20041;-31
2023/04/30 16:15:24;;;;;;;4.53;1.40;;;;;;;17.65;55.93;96534.75;10342168;28;20117;-30
2023/04/30 16:20:26;;;;;;;2.35;1.30;;;;;;;17.66;55.35;96544.88;10360514;28;20109;-30
2023/04/30 16:25:26;;;;;;;5.65;1.52;;;;;;;17.63;55.40;96544.00;10341461;28;20091;-30
2023/04/30 16:30:26;;;;;;;4.27;1.90;;;;;;;17.62;55.23;96544.88;10350844;28;20038;-30
2023/04/30 16:35:27;;;;;;;5.30;2.13;;;;;;;17.70;56.57;96541.50;10367377;28;20034;-31
2023/04/30 16:40:27;;;;;;;4.07;2.10;;;;;;;17.83;57.66;96539.81;10342886;28;20794;-30
2023/04/30 16:45:29;;;;;;;3.90;1.60;;;;;;;17.83;57.76;96542.34;10346698;28;20425;-30
2023/04/30 16:50:30;;;;;;;2.22;1.30;;;;;;;17.72;55.65;96541.47;10348368;28;20439;-31
2023/04/30 16:55:30;;;;;;;4.00;1.52;;;;;;;17.65;55.44;96542.34;10354439;28;20042;-30
2023/04/30 17:00:30;;;;;;;3.28;1.63;;;;;;;17.58;55.57;96533.88;10340532;28;20039;-30
2023/04/30 17:05:31;;;;;;;2.23;1.50;;;;;;;17.60;55.27;96544.03;10356343;28;20794;-30
2023/04/30 17:10:31;;;;;;;2.05;1.45;;;;;;;17.59;55.36;96537.28;10327167;28;20064;-30
2023/04/30 17:15:32;;;;;;;2.90;1.33;;;;;;;17.55;55.25;96538.97;10334071;28;20420;-30
2023/04/30 17:20:32;;;;;;;2.77;1.40;;;;;;;17.57;55.81;96537.25;10336688;28;20469;-31
2023/04/30 17:25:32;;;;;;;3.67;1.90;;;;;;;17.56;55.09;96537.28;10338866;28;20042;-30
2023/04/30 17:30:34;;;;;;;1.63;1.53;;;;;;;17.53;55.00;96540.66;10342691;28;20038;-30
2023/04/30 17:35:34;;;;;;;2.05;1.42;;;;;;;17.57;56.62;96536.44;10356259;28;20061;-31
2023/04/30 17:40:35;;;;;;;4.43;3.38;;;;;;;17.72;60.29;96536.41;10338502;28;20061;-30
2023/04/30 17:45:35;;;;;;;4.00;3.28;;;;;;;17.77;60.28;96549.94;10353867;28;20039;-30
2023/04/30 17:50:36;;;;;;;4.30;1.70;;;;;;;17.70;56.76;96550.78;10349790;28;20046;-31
2023/04/30 17:55:36;;;;;;;2.93;1.20;;;;;;;17.63;55.23;96557.53;10341644;28;20424;-30
2023/04/30 18:00:38;;;;;;;3.13;1.48;;;;;;;17.58;54.94;96559.19;10339045;28;20306;-30
2023/04/30 18:05:38;;;;;;;3.58;1.77;;;;;;;17.58;56.27;96559.19;10357555;28;20105;-30
2023/04/30 18:10:38;;;;;;;2.28;1.75;;;;;;;17.55;55.29;96560.88;10330013;28;20562;-30
2023/04/30 18:15:39;;;;;;;4.27;1.50;;;;;;;17.55;55.01;96565.94;10331219;28;20390;-30
2023/04/30 18:20:39;;;;;;;3.10;1.40;;;;;;;17.55;55.16;96571.00;10359836;28;20562;-31
2023/04/30 18:25:42;;;;;;;2.40;1.70;;;;;;;17.54;55.33;96556.66;10334897;28;20042;-30
2023/04/30 18:30:42;;;;;;;1.48;1.38;;;;;;;17.53;55.13;96560.91;10339011;28;20297;-30
2023/04/30 18:35:48;;;;;;;1.40;1.20;;;;;;;17.53;55.13;96560.03;10341287;28;20091;-30
2023/04/30 18:40:53;;;;;;;5.45;3.10;;;;;;;17.67;60.14;96565.97;10337936;28;20039;-30
2023/04/30 18:45:53;;;;;;;5.30;2.85;;;;;;;17.78;59.18;96554.16;10310206;28;20035;-31
2023/04/30 18:50:54;;;;;;;3.70;2.03;;;;;;;17.74;57.70;96571.03;10325046;28;20037;-31
2023/04/30 18:55:57;;;;;;;4.30;1.80;;;;;;;17.63;55.58;96575.25;10324675;28;20112;-31
2023/04/30 19:00:58;;;;;;;2.15;1.20;;;;;;;17.59;55.83;96571.00;10324470;28;20068;-30
2023/04/30 19:05:58;;;;;;;1.50;1.35;;;;;;;17.59;55.42;96565.94;10323013;28;20048;-30
2023/04/30 19:10:58;;;;;;;3.23;1.17;;;;;;;17.60;55.05;96577.78;10301687;28;20042;-29
2023/04/30 19:16:01;;;;;;;2.07;1.70;;;;;;;17.56;56.54;96571.03;10315639;28;20057;-30
2023/04/30 19:21:02;;;;;;;2.53;1.38;;;;;;;17.58;55.67;96576.09;10333092;28;20042;-30
2023/04/30 19:26:02;;;;;;;5.55;2.50;;;;;;;17.62;58.27;96577.78;10329577;28;20046;-30
2023/04/30 19:31:04;;;;;;;5.87;3.70;;;;;;;17.75;61.46;96576.94;10337550;28;20030;-30
2023/04/30 19:36:05;;;;;;;6.03;3.10;;;;;;;17.79;61.92;96573.56;10344913;28;20048;-31
2023/04/30 19:41:06;;;;;;;5.43;2.10;;;;;;;17.73;58.08;96588.78;10321702;28;20054;-30
2023/04/30 19:46:06;;;;;;;3.88;1.38;;;;;;;17.63;56.29;96576.94;10315787;28;20034;-31
2023/04/30 19:51:08;;;;;;;1.77;1.55;;;;;;;17.59;55.78;96581.13;10341077;28;20038;-30
2023/04/30 19:56:08;;;;;;;3.20;1.60;;;;;;;17.57;55.63;96587.06;10340227;28;20041;-30
2023/04/30 20:01:08;;;;;;;3.60;1.48;;;;;;;17.54;55.51;96592.97;10320386;28;20042;-30
2023/04/30 20:06:09;;;;;;;2.00;1.40;;;;;;;17.53;55.22;96582.81;10355997;28;20381;-30
2023/04/30 20:11:10;;;;;;;1.35;1.25;;;;;;;17.52;55.13;96583.66;10348820;28;20038;-30
2023/04/30 20:16:11;;;;;;;1.90;1.23;;;;;;;17.51;55.32;96589.59;10329774;28;20045;-30
2023/04/30 20:21:11;;;;;;;3.45;2.28;;;;;;;17.67;61.30;96588.75;10333132;28;20308;-30
2023/04/30 20:26:12;;;;;;;4.80;3.13;;;;;;;17.75;61.69;96597.22;10342388;28;20048;-30
2023/04/30 20:31:14;;;;;;;2.92;1.50;;;;;;;17.74;57.79;96595.53;10343568;28;20038;-31
2023/04/30 20:36:15;;;;;;;1.33;1.13;;;;;;;17.64;58.23;96596.34;10327233;28;20040;-30
2023/04/30 20:41:15;;;;;;;2.30;1.40;;;;;;;17.58;56.39;96583.69;10356187;28;20052;-30
2023/04/30 20:46:16;;;;;;;1.47;1.20;;;;;;;17.54;55.84;96582.84;10329914;28;20099;-30
2023/04/30 20:51:17;;;;;;;2.10;1.50;;;;;;;17.54;55.38;96592.09;10350415;28;20564;-30
2023/04/30 20:56:17;;;;;;;1.77;1.38;;;;;;;17.53;55.45;96596.34;10337746;28;20042;-30
2023/04/30 21:01:18;;;;;;;1.20;1.07;;;;;;;17.52;55.33;96588.72;10338863;28;20034;-31
2023/04/30 21:06:18;;;;;;;2.67;1.43;;;;;;;17.51;55.33;96589.59;10325794;28;20038;-30
2023/04/30 21:11:19;;;;;;;3.00;1.73;;;;;;;17.53;56.64;96585.34;10324758;28;20295;-31
2023/04/30 21:16:20;;;;;;;2.40;1.67;;;;;;;17.69;58.23;96582.00;10341595;28;20042;-30
2023/04/30 21:21:21;;;;;;;1.50;1.25;;;;;;;17.75;59.44;96582.03;10339634;28;20033;-30
2023/04/30 21:26:22;;;;;;;3.20;1.10;;;;;;;17.67;58.11;96579.47;10353495;28;20523;-30
2023/04/30 21:31:22;;;;;;;2.70;1.33;;;;;;;17.60;56.74;96584.53;10331605;28;20035;-30
2023/04/30 21:36:22;;;;;;;1.03;0.90;;;;;;;17.55;55.55;96584.53;10334443;28;20038;-31
2023/04/30 21:41:24;;;;;;;1.60;1.47;;;;;;;17.52;55.30;96574.41;10315623;28;20312;-30
2023/04/30 21:46:24;;;;;;;1.25;1.10;;;;;;;17.51;55.29;96577.75;10336197;28;20045;-31
2023/04/30 21:51:24;;;;;;;1.90;1.20;;;;;;;17.49;55.08;96568.50;10360118;28;20053;-30
2023/04/30 21:56:25;;;;;;;2.60;0.93;;;;;;;17.48;55.04;96571.88;10324897;28;20089;-30
2023/04/30 22:01:28;;;;;;;1.50;1.02;;;;;;;17.48;54.72;96564.28;10327464;28;20065;-30
2023/04/30 22:06:29;;;;;;;2.80;2.20;;;;;;;17.53;58.42;96565.09;10350891;28;20065;-30
2023/04/30 22:11:30;;;;;;;4.53;2.63;;;;;;;17.69;62.48;96566.81;10343155;28;20556;-30
2023/04/30 22:16:32;;;;;;;2.85;1.92;;;;;;;17.75;62.91;96561.75;10331034;28;20040;-30
2023/04/30 22:21:32;;;;;;;2.35;1.10;;;;;;;17.67;59.21;96558.38;10341240;28;20041;-30
2023/04/30 22:26:32;;;;;;;1.87;1.67;;;;;;;17.57;56.69;96560.06;10330718;28;20045;-31
2023/04/30 22:31:33;;;;;;;1.07;0.97;;;;;;;17.56;55.76;96565.13;10335523;28;20363;-30
2023/04/30 22:36:33;;;;;;;2.47;1.20;;;;;;;17.52;55.55;96558.34;10356827;28;20508;-30
2023/04/30 22:41:33;;;;;;;1.17;1.07;;;;;;;17.50;55.27;96562.59;10336114;28;20129;-30
2023/04/30 22:46:35;;;;;;;0.95;0.88;;;;;;;17.51;55.03;96546.56;10327017;28;20034;-30
2023/04/30 22:51:36;;;;;;;2.45;1.58;;;;;;;17.50;55.24;96555.81;10339411;28;20062;-30
2023/04/30 22:56:39;;;;;;;1.42;0.93;;;;;;;17.46;55.05;96548.22;10346514;28;20046;-30
2023/04/30 23:01:39;;;;;;;1.10;1.00;;;;;;;17.48;55.26;96551.63;10334818;28;20124;-30
2023/04/30 23:06:41;;;;;;;2.40;2.00;;;;;;;17.62;62.00;96549.94;10353662;28;20052;-30
2023/04/30 23:11:41;;;;;;;3.63;2.05;;;;;;;17.70;62.93;96545.72;10334859;28;20034;-30
2023/04/30 23:16:42;;;;;;;1.57;1.30;;;;;;;17.72;59.81;96546.53;10335484;28;20046;-30
2023/04/30 23:21:42;;;;;;;0.90;0.90;;;;;;;17.62;58.52;96555.00;10336357;28;20520;-30